createdAt,value
2023-03-12T00:01:21.780Z,96647.19
2023-03-12T00:03:49.153Z,96644.47
2023-03-12T00:06:17.420Z,96650.59
2023-03-12T00:08:44.099Z,96653.84
2023-03-12T00:11:16.503Z,96650.41
2023-03-12T00:13:43.493Z,96654.56
2023-03-12T00:16:12.358Z,96649.13
2023-03-12T00:18:39.268Z,96639.06
2023-03-12T00:21:06.478Z,96645.19
2023-03-12T00:23:34.066Z,96635.06
2023-03-12T00:26:05.522Z,96640.50
2023-03-12T00:28:32.408Z,96639.06
2023-03-12T00:30:59.028Z,96641.75
2023-03-12T00:33:26.570Z,96647.34
2023-03-12T00:35:55.785Z,96648.63
2023-03-12T00:38:22.946Z,96648.63
2023-03-12T00:40:49.797Z,96647.19
2023-03-12T00:43:16.446Z,96636.34
2023-03-12T00:45:43.155Z,96637.78
2023-03-12T00:48:09.856Z,96645.91
2023-03-12T00:50:36.610Z,96629.66
2023-03-12T00:53:03.684Z,96641.94
2023-03-12T00:55:30.846Z,96646.63
2023-03-12T00:57:57.653Z,96640.50
2023-03-12T01:00:24.499Z,96633.78
2023-03-12T01:02:51.190Z,96640.50
2023-03-12T01:05:18.087Z,96641.94
2023-03-12T01:07:44.769Z,96645.91
2023-03-12T01:10:14.330Z,96657.47
2023-03-12T01:12:41.706Z,96654.03
2023-03-12T01:15:10.383Z,96656.03
2023-03-12T01:17:37.072Z,96651.84
2023-03-12T01:20:04.155Z,96653.31
2023-03-12T01:22:30.740Z,96644.47
2023-03-12T01:24:57.537Z,96641.22
2023-03-12T01:27:24.317Z,96644.47
2023-03-12T01:29:50.991Z,96648.63
2023-03-12T01:32:17.863Z,96636.50
2023-03-12T01:34:45.069Z,96635.78
2023-03-12T01:37:11.697Z,96624.25
2023-03-12T01:39:38.654Z,96624.97
2023-03-12T01:42:05.873Z,96614.28
2023-03-12T01:45:02.341Z,96602.00
2023-03-12T01:47:34.042Z,96593.19
2023-03-12T01:50:06.163Z,96587.03
2023-03-12T01:52:36.689Z,96586.31
2023-03-12T01:55:07.884Z,96584.16
2023-03-12T01:57:44.430Z,96580.91
2023-03-12T02:00:19.150Z,96589.75
2023-03-12T02:02:47.270Z,96586.84
2023-03-12T02:05:24.655Z,96574.78
2023-03-12T02:07:51.383Z,96565.03
2023-03-12T02:10:18.023Z,96582.56
2023-03-12T02:12:44.770Z,96594.66
2023-03-12T02:15:11.780Z,96590.69
2023-03-12T02:17:40.419Z,96595.94
2023-03-12T02:20:16.309Z,96587.06
2023-03-12T02:22:49.842Z,96575.50
2023-03-12T02:25:35.488Z,96565.97
2023-03-12T02:28:04.396Z,96572.09
2023-03-12T02:30:32.049Z,96573.53
2023-03-12T02:33:02.451Z,96561.44
2023-03-12T02:35:29.200Z,96558.03
2023-03-12T02:37:56.918Z,96559.47
2023-03-12T02:40:41.858Z,96551.34
2023-03-12T02:43:09.763Z,96558.19
2023-03-12T02:45:38.024Z,96566.16
2023-03-12T02:48:08.544Z,96576.06
2023-03-12T02:50:35.559Z,96573.22
2023-03-12T02:53:03.005Z,96580.63
2023-03-12T02:55:29.631Z,96574.63
2023-03-12T02:57:56.292Z,96576.63
2023-03-12T03:00:23.344Z,96572.66
2023-03-12T03:02:52.301Z,96564.53
2023-03-12T03:05:20.461Z,96538.31
2023-03-12T03:07:47.432Z,96531.47
2023-03-12T03:10:15.580Z,96525.53
2023-03-12T03:12:42.321Z,96529.66
2023-03-12T03:15:10.055Z,96538.50
2023-03-12T03:17:36.839Z,96535.09
2023-03-12T03:20:11.008Z,96543.38
2023-03-12T03:22:38.274Z,96544.09
2023-03-12T03:25:06.476Z,96533.25
2023-03-12T03:27:33.503Z,96546.22
2023-03-12T03:30:00.203Z,96545.69
2023-03-12T03:32:27.561Z,96550.22
2023-03-12T03:34:54.218Z,96559.47
2023-03-12T03:37:20.956Z,96563.44
2023-03-12T03:39:47.722Z,96561.44
2023-03-12T03:42:14.480Z,96560.88
2023-03-12T03:44:41.990Z,96577.84
2023-03-12T03:47:08.757Z,96585.41
2023-03-12T03:49:35.410Z,96575.31
2023-03-12T03:52:02.327Z,96580.19
2023-03-12T03:54:33.942Z,96580.19
2023-03-12T03:57:01.214Z,96567.53
2023-03-12T03:59:28.067Z,96563.72
2023-03-12T04:01:54.790Z,96561.19
2023-03-12T04:04:21.653Z,96562.09
2023-03-12T04:06:48.689Z,96566.38
2023-03-12T04:09:15.568Z,96553.91
2023-03-12T04:11:42.437Z,96560.41
2023-03-12T04:14:11.622Z,96556.19
2023-03-12T04:16:40.778Z,96549.84
2023-03-12T04:19:07.461Z,96556.88
2023-03-12T04:21:34.434Z,96553.75
2023-03-12T04:24:01.054Z,96563.66
2023-03-12T04:26:31.568Z,96564.00
2023-03-12T04:29:00.652Z,96552.22
2023-03-12T04:31:27.300Z,96557.25
2023-03-12T04:33:54.277Z,96571.47
2023-03-12T04:36:23.773Z,96561.66
2023-03-12T04:38:52.345Z,96564.72
2023-03-12T04:41:24.193Z,96570.47
2023-03-12T04:43:56.768Z,96576.91
2023-03-12T04:46:23.831Z,96571.66
2023-03-12T04:48:50.860Z,96579.00
2023-03-12T04:51:18.088Z,96580.06
2023-03-12T04:53:44.905Z,96579.09
2023-03-12T04:56:12.966Z,96575.28
2023-03-12T04:58:41.126Z,96583.03
2023-03-12T05:01:07.852Z,96584.78
2023-03-12T05:03:35.444Z,96587.09
2023-03-12T05:06:02.317Z,96585.44
2023-03-12T05:08:29.412Z,96585.75
2023-03-12T05:10:56.882Z,96595.63
2023-03-12T05:13:23.574Z,96593.25
2023-03-12T05:15:54.505Z,96594.84
2023-03-12T05:18:21.819Z,96609.47
2023-03-12T05:20:59.049Z,96593.47
2023-03-12T05:23:26.165Z,96606.66
2023-03-12T05:25:52.977Z,96600.66
2023-03-12T05:28:20.237Z,96603.00
2023-03-12T05:30:47.170Z,96598.47
2023-03-12T05:33:14.415Z,96597.50
2023-03-12T05:35:41.101Z,96603.06
2023-03-12T05:38:07.933Z,96591.06
2023-03-12T05:40:34.563Z,96591.25
2023-03-12T05:43:01.399Z,96593.56
2023-03-12T05:45:29.435Z,96596.44
2023-03-12T05:47:58.797Z,96597.28
2023-03-12T05:50:27.772Z,96603.63
2023-03-12T05:52:54.589Z,96611.91
2023-03-12T05:55:21.373Z,96599.94
2023-03-12T05:57:48.164Z,96606.94
2023-03-12T06:00:15.593Z,96609.97
2023-03-12T06:02:49.136Z,96615.59
2023-03-12T06:05:16.058Z,96617.88
2023-03-12T06:07:43.027Z,96618.75
2023-03-12T06:10:10.673Z,96617.63
2023-03-12T06:12:37.326Z,96623.22
2023-03-12T06:15:05.376Z,96618.09
2023-03-12T06:17:32.489Z,96620.97
2023-03-12T06:19:59.474Z,96623.84
2023-03-12T06:22:26.690Z,96617.84
2023-03-12T06:24:53.669Z,96623.59
2023-03-12T06:27:20.505Z,96628.47
2023-03-12T06:29:47.312Z,96623.19
2023-03-12T06:32:14.343Z,96622.03
2023-03-12T06:34:41.185Z,96626.94
2023-03-12T06:37:07.890Z,96637.22
2023-03-12T06:39:34.761Z,96640.84
2023-03-12T06:42:01.414Z,96647.13
2023-03-12T06:44:28.104Z,96643.84
2023-03-12T06:46:55.232Z,96652.88
2023-03-12T06:49:22.333Z,96659.75
2023-03-12T06:51:49.049Z,96657.75
2023-03-12T06:54:16.021Z,96657.34
2023-03-12T06:56:42.650Z,96658.78
2023-03-12T06:59:09.385Z,96650.75
2023-03-12T07:01:35.993Z,96665.78
2023-03-12T07:04:02.719Z,96658.50
2023-03-12T07:06:29.315Z,96664.66
2023-03-12T07:08:56.035Z,96674.44
2023-03-12T07:11:22.681Z,96676.00
2023-03-12T07:13:49.394Z,96681.41
2023-03-12T07:16:16.169Z,96679.72
2023-03-12T07:18:42.983Z,96689.00
2023-03-12T07:21:09.559Z,96695.25
2023-03-12T07:23:36.278Z,96697.13
2023-03-12T07:26:05.363Z,96698.63
2023-03-12T07:28:32.110Z,96711.03
2023-03-12T07:31:02.881Z,96712.31
2023-03-12T07:33:30.038Z,96720.16
2023-03-12T07:35:56.884Z,96719.75
2023-03-12T07:38:23.787Z,96725.03
2023-03-12T07:40:51.973Z,96720.06
2023-03-12T07:43:20.469Z,96715.19
2023-03-12T07:45:50.797Z,96721.22
2023-03-12T07:48:19.795Z,96720.25
2023-03-12T07:50:46.539Z,96719.72
2023-03-12T07:53:13.252Z,96726.72
2023-03-12T07:55:39.941Z,96737.53
2023-03-12T07:58:06.864Z,96728.47
2023-03-12T08:00:33.657Z,96731.09
2023-03-12T08:03:00.450Z,96729.34
2023-03-12T08:05:27.317Z,96724.75
2023-03-12T08:07:54.430Z,96723.28
2023-03-12T08:10:23.513Z,96739.34
2023-03-12T08:12:50.395Z,96736.81
2023-03-12T08:15:17.212Z,96742.50
2023-03-12T08:17:44.195Z,96745.25
2023-03-12T08:20:11.867Z,96754.66
2023-03-12T08:22:39.142Z,96756.16
2023-03-12T08:25:06.504Z,96763.34
2023-03-12T08:27:34.013Z,96765.75
2023-03-12T08:30:00.734Z,96769.84
2023-03-12T08:32:27.485Z,96774.09
2023-03-12T08:34:54.196Z,96776.41
2023-03-12T08:37:20.886Z,96777.88
2023-03-12T08:39:47.544Z,96772.88
2023-03-12T08:42:14.222Z,96776.63
2023-03-12T08:44:40.929Z,96777.63
2023-03-12T08:47:07.610Z,96772.78
2023-03-12T08:49:34.356Z,96769.03
2023-03-12T08:52:01.188Z,96783.50
2023-03-12T08:54:27.874Z,96794.28
2023-03-12T08:56:54.567Z,96790.28
2023-03-12T08:59:22.400Z,96782.22
2023-03-12T09:01:49.375Z,96772.03
2023-03-12T09:04:16.643Z,96770.31
2023-03-12T09:06:43.499Z,96781.22
2023-03-12T09:09:10.199Z,96793.41
2023-03-12T09:11:39.738Z,96803.34
2023-03-12T09:16:53.865Z,96802.31
2023-03-12T09:19:21.081Z,96800.84
2023-03-12T09:21:47.741Z,96799.84
2023-03-12T09:24:14.483Z,96825.28
2023-03-12T09:26:41.231Z,96824.59
2023-03-12T09:29:07.823Z,96832.38
2023-03-12T09:31:36.337Z,96835.50
2023-03-12T09:34:03.719Z,96847.34
2023-03-12T09:36:30.898Z,96861.47
2023-03-12T09:38:57.499Z,96858.16
2023-03-12T09:41:27.885Z,96864.34
2023-03-12T09:43:59.103Z,96851.47
2023-03-12T09:46:53.844Z,96865.06
2023-03-12T09:49:34.342Z,96856.59
2023-03-12T09:52:03.604Z,96850.94
2023-03-12T09:54:50.002Z,96851.72
2023-03-12T09:57:25.242Z,96844.09
2023-03-12T09:59:52.488Z,96857.50
2023-03-12T10:02:34.161Z,96864.56
2023-03-12T10:05:07.220Z,96867.41
2023-03-12T10:07:36.479Z,96867.28
2023-03-12T10:10:09.014Z,96864.81
2023-03-12T10:12:47.420Z,96877.47
2023-03-12T10:15:14.222Z,96871.34
2023-03-12T10:17:55.996Z,96872.91
2023-03-12T10:20:32.737Z,96890.34
2023-03-12T10:23:06.784Z,96881.75
2023-03-12T10:25:57.802Z,96882.34
2023-03-12T10:28:36.654Z,96890.66
2023-03-12T10:31:06.617Z,96884.13
2023-03-12T10:34:01.867Z,96885.78
2023-03-12T10:36:30.094Z,96880.41
2023-03-12T10:38:56.716Z,96882.31
2023-03-12T10:41:26.286Z,96896.13
2023-03-12T10:43:53.030Z,96895.53
2023-03-12T10:46:56.215Z,96913.78
2023-03-12T10:49:23.890Z,96898.09
2023-03-12T10:51:57.860Z,96901.00
2023-03-12T10:54:33.838Z,96887.66
2023-03-12T10:57:01.116Z,96889.63
2023-03-12T10:59:33.724Z,96899.09
2023-03-12T11:02:01.704Z,96893.59
2023-03-12T11:04:32.263Z,96885.00
2023-03-12T11:07:27.739Z,96899.66
2023-03-12T11:10:06.589Z,96900.38
2023-03-12T11:12:36.037Z,96906.75
2023-03-12T11:15:21.972Z,96901.56
2023-03-12T11:17:48.865Z,96893.34
2023-03-12T11:20:26.221Z,96890.25
2023-03-12T11:22:52.888Z,96890.13
2023-03-12T11:25:28.234Z,96897.28
2023-03-12T11:27:57.183Z,96893.00
2023-03-12T11:30:28.758Z,96884.66
2023-03-12T11:32:58.113Z,96891.44
2023-03-12T11:35:34.201Z,96894.06
2023-03-12T11:38:06.585Z,96908.72
2023-03-12T11:40:52.024Z,96912.94
2023-03-12T11:43:43.992Z,96895.28
2023-03-12T11:46:26.082Z,96906.38
2023-03-12T11:48:58.610Z,96895.88
2023-03-12T11:51:31.166Z,96876.63
2023-03-12T11:54:19.945Z,96882.44
2023-03-12T11:56:53.946Z,96894.06
2023-03-12T11:59:36.509Z,96890.97
2023-03-12T12:02:18.589Z,96887.88
2023-03-12T12:05:07.202Z,96882.78
2023-03-12T12:07:46.045Z,96875.47
2023-03-12T12:10:24.978Z,96889.53
2023-03-12T12:13:23.744Z,96889.25
2023-03-12T12:15:53.398Z,96886.22
2023-03-12T12:18:42.835Z,96888.00
2023-03-12T12:21:32.077Z,96886.53
2023-03-12T12:24:26.701Z,96876.19
2023-03-12T12:27:03.668Z,96879.75
2023-03-12T12:29:53.734Z,96862.34
2023-03-12T12:32:27.334Z,96872.25
2023-03-12T12:35:23.515Z,96859.88
2023-03-12T12:37:54.425Z,96849.59
2023-03-12T12:40:21.954Z,96851.72
2023-03-12T12:43:11.615Z,96854.59
2023-03-12T12:45:39.720Z,96862.00
2023-03-12T12:48:23.357Z,96844.56
2023-03-12T12:50:52.145Z,96844.59
2023-03-12T12:53:20.558Z,96845.53
2023-03-12T12:55:50.510Z,96844.91
2023-03-12T12:58:37.321Z,96845.84
2023-03-12T13:01:04.386Z,96845.22
2023-03-12T13:03:31.138Z,96845.13
2023-03-12T13:06:03.337Z,96837.25
2023-03-12T13:08:59.177Z,96839.50
2023-03-12T13:11:31.595Z,96835.47
2023-03-12T13:14:04.643Z,96838.63
2023-03-12T13:16:36.482Z,96840.72
2023-03-12T13:19:08.954Z,96844.59
2023-03-12T13:21:40.701Z,96829.19
2023-03-12T13:24:46.380Z,96826.91
2023-03-12T13:27:25.910Z,96812.97
2023-03-12T13:29:57.221Z,96811.56
2023-03-12T13:32:37.693Z,96806.41
2023-03-12T13:35:13.405Z,96821.94
2023-03-12T13:37:46.238Z,96811.09
2023-03-12T13:40:31.290Z,96802.78
2023-03-12T13:43:16.421Z,96801.22
2023-03-12T13:46:06.662Z,96803.66
2023-03-12T13:48:35.031Z,96815.56
2023-03-12T13:51:11.967Z,96810.44
2023-03-12T13:53:40.586Z,96811.94
2023-03-12T13:56:11.868Z,96818.50
2023-03-12T13:58:54.282Z,96821.94
2023-03-12T14:01:22.705Z,96815.53
2023-03-12T14:03:53.576Z,96814.97
2023-03-12T14:06:21.706Z,96835.84
2023-03-12T14:09:06.858Z,96818.84
2023-03-12T14:12:01.066Z,96824.09
2023-03-12T14:14:48.032Z,96827.22
2023-03-12T14:17:20.534Z,96827.72
2023-03-12T14:19:50.883Z,96831.91
2023-03-12T14:22:22.752Z,96839.94
2023-03-12T14:24:58.936Z,96828.41
2023-03-12T14:27:31.374Z,96828.47
2023-03-12T14:30:11.554Z,96826.72
2023-03-12T14:32:38.506Z,96832.34
2023-03-12T14:35:18.203Z,96818.59
2023-03-12T14:38:12.048Z,96816.09
2023-03-12T14:40:46.789Z,96817.81
2023-03-12T14:43:30.901Z,96830.78
2023-03-12T14:46:00.505Z,96823.22
2023-03-12T14:48:32.570Z,96827.44
2023-03-12T14:51:00.740Z,96819.28
2023-03-12T14:53:31.738Z,96834.38
2023-03-12T14:56:29.192Z,96836.00
2023-03-12T14:58:56.969Z,96833.81
2023-03-12T15:01:27.039Z,96830.34
2023-03-12T15:03:57.029Z,96829.72
2023-03-12T15:06:29.727Z,96833.34
2023-03-12T15:08:57.202Z,96823.44
2023-03-12T15:11:25.990Z,96828.03
2023-03-12T15:13:54.188Z,96821.84
2023-03-12T15:16:21.237Z,96822.03
2023-03-12T15:18:50.027Z,96829.81
2023-03-12T15:21:17.017Z,96821.84
2023-03-12T15:23:45.989Z,96822.50
2023-03-12T15:26:12.500Z,96813.81
2023-03-12T15:28:39.794Z,96817.59
2023-03-12T15:31:13.884Z,96814.34
2023-03-12T15:33:41.858Z,96795.28
2023-03-12T15:36:14.948Z,96795.50
2023-03-12T15:38:50.170Z,96798.22
2023-03-12T15:41:21.426Z,96803.69
2023-03-12T15:43:54.642Z,96806.63
2023-03-12T15:46:22.107Z,96801.19
2023-03-12T15:48:51.541Z,96798.91
2023-03-12T15:51:35.874Z,96805.94
2023-03-12T15:54:06.503Z,96803.84
2023-03-12T15:56:34.851Z,96794.34
2023-03-12T15:59:04.479Z,96796.78
2023-03-12T16:01:44.759Z,96794.38
2023-03-12T16:04:12.153Z,96785.78
2023-03-12T16:06:38.994Z,96786.03
2023-03-12T16:09:06.139Z,96792.03
2023-03-12T16:11:35.105Z,96775.78
2023-03-12T16:14:03.842Z,96778.75
2023-03-12T16:16:30.814Z,96782.69
2023-03-12T16:18:57.861Z,96777.25
2023-03-12T16:21:24.659Z,96781.97
2023-03-12T16:23:51.342Z,96779.16
2023-03-12T16:26:18.196Z,96781.69
2023-03-12T16:28:45.569Z,96784.59
2023-03-12T16:31:13.503Z,96778.97
2023-03-12T16:33:40.781Z,96786.91
2023-03-12T16:36:15.810Z,96784.72
2023-03-12T16:38:44.291Z,96791.31
2023-03-12T16:41:16.897Z,96785.03
2023-03-12T16:43:47.269Z,96787.00
2023-03-12T16:46:19.593Z,96792.97
2023-03-12T16:48:50.944Z,96793.72
2023-03-12T16:51:17.632Z,96795.22
2023-03-12T16:53:44.789Z,96798.44
2023-03-12T16:56:20.656Z,96796.38
2023-03-12T16:58:49.603Z,96797.06
2023-03-12T17:01:19.152Z,96801.34
2023-03-12T17:03:49.381Z,96789.63
2023-03-12T17:06:18.613Z,96792.84
2023-03-12T17:08:45.448Z,96801.00
2023-03-12T17:11:15.133Z,96799.03
2023-03-12T17:13:42.143Z,96802.41
2023-03-12T17:16:11.624Z,96808.63
2023-03-12T17:18:39.608Z,96809.88
2023-03-12T17:21:07.022Z,96815.25
2023-03-12T17:23:33.966Z,96815.75
2023-03-12T17:26:00.677Z,96825.03
2023-03-12T17:28:27.600Z,96820.59
2023-03-12T17:30:54.255Z,96814.59
2023-03-12T17:33:21.026Z,96820.81
2023-03-12T17:35:56.971Z,96810.06
2023-03-12T17:38:24.037Z,96798.47
2023-03-12T17:40:50.648Z,96798.88
2023-03-12T17:43:17.311Z,96799.63
2023-03-12T17:45:43.984Z,96800.88
2023-03-12T17:48:10.723Z,96801.59
2023-03-12T17:50:37.509Z,96799.00
2023-03-12T17:53:04.314Z,96800.81
2023-03-12T17:55:31.010Z,96802.97
2023-03-12T17:57:57.679Z,96793.91
2023-03-12T18:00:24.382Z,96802.19
2023-03-12T18:02:51.089Z,96796.03
2023-03-12T18:05:17.952Z,96809.50
2023-03-12T18:07:47.295Z,96799.25
2023-03-12T18:10:14.118Z,96806.44
2023-03-12T18:12:41.000Z,96813.38
2023-03-12T18:15:10.923Z,96814.53
2023-03-12T18:17:37.636Z,96820.13
2023-03-12T18:20:09.890Z,96817.56
2023-03-12T18:22:38.103Z,96818.13
2023-03-12T18:25:05.694Z,96821.44
2023-03-12T18:27:32.421Z,96817.69
2023-03-12T18:29:59.058Z,96820.84
2023-03-12T18:32:25.827Z,96827.31
2023-03-12T18:34:53.289Z,96821.38
2023-03-12T18:37:20.783Z,96828.44
2023-03-12T18:39:48.027Z,96825.81
2023-03-12T18:42:14.690Z,96832.88
2023-03-12T18:44:41.329Z,96841.19
2023-03-12T18:47:08.011Z,96839.88
2023-03-12T18:49:34.698Z,96838.63
2023-03-12T18:52:01.526Z,96832.56
2023-03-12T18:54:28.421Z,96831.28
2023-03-12T18:56:55.187Z,96836.00
2023-03-12T18:59:21.872Z,96829.97
2023-03-12T19:01:48.778Z,96830.69
2023-03-12T19:04:20.008Z,96837.59
2023-03-12T19:06:51.273Z,96840.34
2023-03-12T19:09:18.925Z,96847.81
2023-03-12T19:11:48.598Z,96836.31
2023-03-12T19:14:15.496Z,96845.78
2023-03-12T19:16:42.483Z,96847.94
2023-03-12T19:19:09.233Z,96842.47
2023-03-12T19:21:35.870Z,96844.50
2023-03-12T19:24:02.608Z,96852.09
2023-03-12T19:26:29.337Z,96849.38
2023-03-12T19:28:56.074Z,96856.97
2023-03-12T19:31:22.844Z,96857.69
2023-03-12T19:33:49.642Z,96852.22
2023-03-12T19:36:16.359Z,96855.69
2023-03-12T19:38:43.201Z,96858.44
2023-03-12T19:41:09.883Z,96859.16
2023-03-12T19:43:37.253Z,96851.66
2023-03-12T19:46:04.514Z,96851.06
2023-03-12T19:48:31.430Z,96858.69
2023-03-12T19:50:58.120Z,96860.84
2023-03-12T19:53:24.991Z,96860.84
2023-03-12T19:55:51.934Z,96856.81
2023-03-12T19:58:18.775Z,96855.53
2023-03-12T20:00:45.432Z,96859.69
2023-03-12T20:03:12.177Z,96854.94
2023-03-12T20:05:43.019Z,96854.38
2023-03-12T20:08:11.150Z,96865.44
2023-03-12T20:10:38.817Z,96844.28
2023-03-12T20:13:05.650Z,96853.19
2023-03-12T20:15:32.292Z,96838.97
2023-03-12T20:17:59.093Z,96854.06
2023-03-12T20:20:25.818Z,96838.41
2023-03-12T20:22:52.549Z,96837.81
2023-03-12T20:25:19.278Z,96835.94
2023-03-12T20:27:47.126Z,96829.19
2023-03-12T20:30:14.099Z,96833.22
2023-03-12T20:32:42.607Z,96827.16
2023-03-12T20:35:09.910Z,96832.63
2023-03-12T20:37:36.657Z,96833.94
2023-03-12T20:40:05.165Z,96827.88
2023-03-12T20:42:31.745Z,96832.03
2023-03-12T20:44:58.536Z,96841.66
2023-03-12T20:47:25.259Z,96844.41
2023-03-12T20:49:52.036Z,96839.66
2023-03-12T20:52:18.751Z,96842.38
2023-03-12T20:54:45.409Z,96826.69
2023-03-12T20:57:12.263Z,96834.19
2023-03-12T20:59:38.873Z,96823.97
2023-03-12T21:02:05.593Z,96821.25
2023-03-12T21:04:32.214Z,96827.44
2023-03-12T21:06:58.859Z,96820.66
2023-03-12T21:09:25.563Z,96814.50
2023-03-12T21:11:52.293Z,96795.38
2023-03-12T21:14:18.984Z,96809.75
2023-03-12T21:16:45.771Z,96802.97
2023-03-12T21:19:12.425Z,96799.53
2023-03-12T21:21:39.146Z,96811.19
2023-03-12T21:24:05.897Z,96799.53
2023-03-12T21:26:32.528Z,96795.38
2023-03-12T21:28:59.199Z,96789.19
2023-03-12T21:31:28.713Z,96784.44
2023-03-12T21:33:56.533Z,96786.59
2023-03-12T21:36:23.732Z,96776.97
2023-03-12T21:38:51.744Z,96785.16
2023-03-12T21:41:19.277Z,96789.31
2023-03-12T21:43:46.702Z,96782.56
2023-03-12T21:46:15.664Z,96776.38
2023-03-12T21:48:46.987Z,96767.47
2023-03-12T21:51:15.946Z,96765.44
2023-03-12T21:53:42.755Z,96762.00
2023-03-12T21:56:10.139Z,96761.28
2023-03-12T21:58:37.325Z,96762.59
2023-03-12T22:01:08.942Z,96752.38
2023-03-12T22:03:36.451Z,96744.31
2023-03-12T22:06:03.521Z,96755.94
2023-03-12T22:08:30.604Z,96745.03
2023-03-12T22:10:57.555Z,96749.19
2023-03-12T22:13:24.282Z,96743.72
2023-03-12T22:15:56.210Z,96740.53
2023-03-12T22:18:23.377Z,96735.66
2023-03-12T22:21:01.583Z,96736.50
2023-03-12T22:23:28.660Z,96733.06
2023-03-12T22:25:55.773Z,96724.28
2023-03-12T22:28:25.673Z,96729.72
2023-03-12T22:31:00.043Z,96725.72
2023-03-12T22:33:27.694Z,96723.69
2023-03-12T22:35:54.879Z,96725.72
2023-03-12T22:38:22.573Z,96719.66
2023-03-12T22:40:49.506Z,96716.34
2023-03-12T22:43:16.434Z,96715.63
2023-03-12T22:45:43.181Z,96715.03
2023-03-12T22:48:09.977Z,96714.47
2023-03-12T22:50:36.604Z,96711.75
2023-03-12T22:53:03.496Z,96706.28
2023-03-12T22:55:30.208Z,96696.06
2023-03-12T22:57:56.916Z,96692.03
2023-03-12T23:00:23.905Z,96702.22
2023-03-12T23:02:50.873Z,96692.03
2023-03-12T23:05:17.626Z,96687.97
2023-03-12T23:07:44.612Z,96694.16
2023-03-12T23:10:11.665Z,96692.13
2023-03-12T23:12:38.419Z,96683.38
2023-03-12T23:15:06.295Z,96682.06
2023-03-12T23:17:32.928Z,96684.78
2023-03-12T23:19:59.592Z,96686.22
2023-03-12T23:22:26.293Z,96680.75
2023-03-12T23:24:53.271Z,96680.75
2023-03-12T23:27:20.034Z,96663.06
2023-03-12T23:29:46.733Z,96665.06
2023-03-12T23:32:13.441Z,96648.81
2023-03-12T23:34:40.058Z,96666.66
2023-03-12T23:37:07.287Z,96672.81
2023-03-12T23:39:42.160Z,96660.59
2023-03-12T23:42:15.103Z,96655.13
2023-03-12T23:44:41.725Z,96653.09
2023-03-12T23:47:08.446Z,96650.50
2023-03-12T23:49:35.180Z,96649.19
2023-03-12T23:52:01.849Z,96643.25
2023-03-12T23:54:28.495Z,96648.88
2023-03-12T23:56:56.236Z,96646.84
2023-03-12T23:59:22.803Z,96647.56
